Etusivu
METAR-TAF:

METAR-TAF

Lentoasemat :

Kilimanjaron kansainvälinen lentoasema

Kilimanjaro, Tansania

Leveyspiiri: 03-25S, Pituuspiiri: 037-04E, korkeus merenpinnasta: 891 m

Tämänhetkinen sää

Tämä raportti tehtiin 3 tuntia ja 54 minuuttia sitten, kello 13.00 UTC
Tuuli 7 kn koillisesta
Lämpötila 28°C
Kosteus 40%
Ilmanpaine 1018 hPa
Näkyvyys 10 km tai enemmän
Muutamia pilviä 3600 ft:n korkeudessa

METAR: HTKJ 131300Z 05007KT 9999 FEW036 28/13 Q1018 NOSIG

Aika: 19:54 (16:54 UTC)

Sääennuste

Tämä raportti tehtiin 5 tuntia ja 54 minuuttia sitten, kello 11.00 UTC
Ennuste voimassa 13. päivästä klo 12 UTC - 14. päivään klo 12 UTC
Tuuli 5 kn idästä
Näkyvyys 10 km tai enemmän
Muutamia pilviä 3200 ft:n korkeudessa

TAF: HTKJ 131100Z 1312/1412 09005KT 9999 FEW032

Säähavainnot ja -ennusteet yli 4000 lentoasemalta (METAR- ja TAF-raportit).

Käytössä olevat sääasemat on merkitty karttaan keltaisilla ja punaisilla pisteillä.

Aseta hiiri pisteen päälle nähdäksesi sääaseman nimen.

Klikkaa sitten nähdäksesi säähavainnot ja -ennusteet.

Kartan vaihtaminen: klikkaa mustalla rastilla varustettuja vihreitä pisteitä, niin voit zoomata sisään; viivalla varustettua vihreää pistettä, niin voit zoomata ulos tai vihreitä nuolia, niin pääset viereisille kartoille.


METAR-TAF: